sensor_id;sensor_type;location;lat;lon;timestamp;pressure;altitude;pressure_sealevel;temperature;humidity
29121;BME280;16191;49.548;8.658;2023-11-21T00:01:06;99636.97;;;8.94;100.00
29121;BME280;16191;49.548;8.658;2023-11-21T00:03:35;99642.09;;;8.96;100.00
29121;BME280;16191;49.548;8.658;2023-11-21T00:06:02;99643.66;;;9.00;100.00
29121;BME280;16191;49.548;8.658;2023-11-21T00:08:29;99640.03;;;9.04;100.00
29121;BME280;16191;49.548;8.658;2023-11-21T00:10:56;99635.84;;;9.00;100.00
29121;BME280;16191;49.548;8.658;2023-11-21T00:13:22;99636.84;;;8.97;100.00
29121;BME280;16191;49.548;8.658;2023-11-21T00:15:49;99636.13;;;8.93;100.00
29121;BME280;16191;49.548;8.658;2023-11-21T00:18:16;99642.09;;;8.96;100.00
29121;BME280;16191;49.548;8.658;2023-11-21T00:20:43;99638.53;;;8.98;100.00
29121;BME280;16191;49.548;8.658;2023-11-21T00:23:09;99632.66;;;8.93;100.00
29121;BME280;16191;49.548;8.658;2023-11-21T00:25:36;99631.75;;;8.94;100.00
29121;BME280;16191;49.548;8.658;2023-11-21T00:28:03;99635.41;;;8.90;100.00
29121;BME280;16191;49.548;8.658;2023-11-21T00:30:30;99629.28;;;8.91;100.00
29121;BME280;16191;49.548;8.658;2023-11-21T00:32:57;99631.03;;;8.90;100.00
29121;BME280;16191;49.548;8.658;2023-11-21T00:35:25;99623.88;;;8.96;100.00
29121;BME280;16191;49.548;8.658;2023-11-21T00:37:51;99620.56;;;8.92;100.00
29121;BME280;16191;49.548;8.658;2023-11-21T00:40:18;99618.75;;;8.94;100.00
29121;BME280;16191;49.548;8.658;2023-11-21T00:42:49;99623.25;;;8.90;100.00
29121;BME280;16191;49.548;8.658;2023-11-21T00:45:15;99624.00;;;8.92;100.00
29121;BME280;16191;49.548;8.658;2023-11-21T00:47:42;99622.00;;;8.99;100.00
29121;BME280;16191;49.548;8.658;2023-11-21T00:50:09;99617.00;;;8.94;100.00
29121;BME280;16191;49.548;8.658;2023-11-21T00:52:36;99627.47;;;8.93;100.00
29121;BME280;16191;49.548;8.658;2023-11-21T00:55:04;99619.34;;;9.01;100.00
29121;BME280;16191;49.548;8.658;2023-11-21T00:57:33;99627.41;;;8.94;100.00
29121;BME280;16191;49.548;8.658;2023-11-21T01:00:00;99620.81;;;9.06;100.00
29121;BME280;16191;49.548;8.658;2023-11-21T01:02:27;99624.34;;;9.05;100.00
29121;BME280;16191;49.548;8.658;2023-11-21T01:04:54;99621.94;;;9.01;100.00
29121;BME280;16191;49.548;8.658;2023-11-21T01:07:20;99625.50;;;8.98;100.00
29121;BME280;16191;49.548;8.658;2023-11-21T01:09:47;99627.28;;;8.98;100.00
29121;BME280;16191;49.548;8.658;2023-11-21T01:12:14;99627.97;;;9.01;100.00
29121;BME280;16191;49.548;8.658;2023-11-21T01:14:41;99627.00;;;9.04;100.00
29121;BME280;16191;49.548;8.658;2023-11-21T01:17:07;99635.06;;;8.98;100.00
29121;BME280;16191;49.548;8.658;2023-11-21T01:19:34;99638.66;;;8.95;100.00
29121;BME280;16191;49.548;8.658;2023-11-21T01:22:01;99632.47;;;8.98;100.00
29121;BME280;16191;49.548;8.658;2023-11-21T01:24:27;99626.41;;;8.97;100.00
29121;BME280;16191;49.548;8.658;2023-11-21T01:26:54;99635.06;;;8.98;100.00
29121;BME280;16191;49.548;8.658;2023-11-21T01:29:20;99635.84;;;9.00;100.00
29121;BME280;16191;49.548;8.658;2023-11-21T01:31:47;99634.16;;;8.99;100.00
29121;BME280;16191;49.548;8.658;2023-11-21T01:34:13;99631.50;;;9.00;100.00
29121;BME280;16191;49.548;8.658;2023-11-21T01:36:40;99634.09;;;9.00;100.00
29121;BME280;16191;49.548;8.658;2023-11-21T01:39:07;99630.53;;;9.03;100.00
29121;BME280;16191;49.548;8.658;2023-11-21T01:41:35;99634.81;;;9.04;100.00
29121;BME280;16191;49.548;8.658;2023-11-21T01:44:01;99628.91;;;9.00;100.00
29121;BME280;16191;49.548;8.658;2023-11-21T01:46:28;99634.03;;;9.02;100.00
29121;BME280;16191;49.548;8.658;2023-11-21T01:48:55;99633.97;;;9.03;100.00
29121;BME280;16191;49.548;8.658;2023-11-21T01:51:22;99640.81;;;9.06;100.00
29121;BME280;16191;49.548;8.658;2023-11-21T01:53:49;99633.78;;;9.08;100.00
29121;BME280;16191;49.548;8.658;2023-11-21T01:56:16;99637.22;;;9.08;100.00
29121;BME280;16191;49.548;8.658;2023-11-21T01:58:43;99639.25;;;9.02;100.00
29121;BME280;16191;49.548;8.658;2023-11-21T02:01:10;99639.81;;;9.08;100.00
29121;BME280;16191;49.548;8.658;2023-11-21T02:03:37;99639.03;;;9.06;100.00
29121;BME280;16191;49.548;8.658;2023-11-21T02:06:04;99631.09;;;9.09;100.00
29121;BME280;16191;49.548;8.658;2023-11-21T02:08:31;99631.16;;;9.08;100.00
29121;BME280;16191;49.548;8.658;2023-11-21T02:10:58;99630.53;;;9.03;100.00
29121;BME280;16191;49.548;8.658;2023-11-21T02:13:24;99628.69;;;9.05;100.00
29121;BME280;16191;49.548;8.658;2023-11-21T02:15:51;99632.75;;;9.10;100.00
29121;BME280;16191;49.548;8.658;2023-11-21T02:18:21;99634.88;;;9.02;100.00
29121;BME280;16191;49.548;8.658;2023-11-21T02:20:48;99636.50;;;9.05;100.00
29121;BME280;16191;49.548;8.658;2023-11-21T02:23:15;99639.59;;;9.13;100.00
29121;BME280;16191;49.548;8.658;2023-11-21T02:25:41;99643.03;;;9.13;100.00
29121;BME280;16191;49.548;8.658;2023-11-21T02:28:09;99639.59;;;9.13;100.00
29121;BME280;16191;49.548;8.658;2023-11-21T02:30:39;99636.84;;;9.16;100.00
29121;BME280;16191;49.548;8.658;2023-11-21T02:33:06;99638.97;;;9.08;100.00
29121;BME280;16191;49.548;8.658;2023-11-21T02:35:33;99638.97;;;9.08;100.00
29121;BME280;16191;49.548;8.658;2023-11-21T02:38:01;99640.66;;;9.09;100.00
29121;BME280;16191;49.548;8.658;2023-11-21T02:40:28;99645.16;;;9.05;100.00
29121;BME280;16191;49.548;8.658;2023-11-21T02:42:56;99637.34;;;9.05;100.00
29121;BME280;16191;49.548;8.658;2023-11-21T02:45:25;99634.38;;;9.13;100.00
29121;BME280;16191;49.548;8.658;2023-11-21T02:47:51;99625.06;;;9.09;100.00
29121;BME280;16191;49.548;8.658;2023-11-21T02:50:23;99629.41;;;9.08;100.00
29121;BME280;16191;49.548;8.658;2023-11-21T02:52:50;99626.50;;;9.14;100.00
29121;BME280;16191;49.548;8.658;2023-11-21T02:55:17;99623.06;;;9.14;100.00
29121;BME280;16191;49.548;8.658;2023-11-21T02:57:45;99624.03;;;9.11;100.00
29121;BME280;16191;49.548;8.658;2023-11-21T03:00:11;99627.44;;;9.13;100.00
29121;BME280;16191;49.548;8.658;2023-11-21T03:02:40;99624.03;;;9.11;100.00
29121;BME280;16191;49.548;8.658;2023-11-21T03:05:07;99621.59;;;9.08;100.00
29121;BME280;16191;49.548;8.658;2023-11-21T03:07:39;99626.22;;;9.02;100.00
29121;BME280;16191;49.548;8.658;2023-11-21T03:10:07;99619.97;;;9.06;100.00
29121;BME280;16191;49.548;8.658;2023-11-21T03:12:35;99610.19;;;9.11;100.00
29121;BME280;16191;49.548;8.658;2023-11-21T03:15:03;99620.47;;;9.14;100.00
29121;BME280;16191;49.548;8.658;2023-11-21T03:17:30;99624.88;;;9.12;100.00
29121;BME280;16191;49.548;8.658;2023-11-21T03:19:57;99633.59;;;9.11;100.00
29121;BME280;16191;49.548;8.658;2023-11-21T03:22:24;99635.31;;;9.12;100.00
29121;BME280;16191;49.548;8.658;2023-11-21T03:24:50;99628.00;;;9.20;100.00
29121;BME280;16191;49.548;8.658;2023-11-21T03:27:17;99628.06;;;9.18;100.00
29121;BME280;16191;49.548;8.658;2023-11-21T03:29:43;99635.38;;;9.10;100.00
29121;BME280;16191;49.548;8.658;2023-11-21T03:32:11;99628.13;;;9.17;100.00
29121;BME280;16191;49.548;8.658;2023-11-21T03:34:53;99630.81;;;9.15;100.00
29121;BME280;16191;49.548;8.658;2023-11-21T03:37:21;99635.59;;;9.06;100.00
29121;BME280;16191;49.548;8.658;2023-11-21T03:39:47;99641.66;;;9.06;100.00
29121;BME280;16191;49.548;8.658;2023-11-21T03:42:14;99640.66;;;9.09;100.00
29121;BME280;16191;49.548;8.658;2023-11-21T03:44:41;99637.97;;;9.10;100.00
29121;BME280;16191;49.548;8.658;2023-11-21T03:47:08;99638.97;;;9.08;100.00
29121;BME280;16191;49.548;8.658;2023-11-21T03:49:34;99644.03;;;9.11;100.00
29121;BME280;16191;49.548;8.658;2023-11-21T03:52:01;99637.84;;;9.13;100.00
29121;BME280;16191;49.548;8.658;2023-11-21T03:54:31;99635.59;;;9.06;100.00
29121;BME280;16191;49.548;8.658;2023-11-21T03:56:57;99642.19;;;9.13;100.00
29121;BME280;16191;49.548;8.658;2023-11-21T03:59:24;99638.47;;;9.18;100.00
29121;BME280;16191;49.548;8.658;2023-11-21T04:01:51;99647.28;;;9.16;100.00
29121;BME280;16191;49.548;8.658;2023-11-21T04:04:17;99645.78;;;9.10;100.00
29121;BME280;16191;49.548;8.658;2023-11-21T04:06:44;99643.19;;;9.10;100.00
29121;BME280;16191;49.548;8.658;2023-11-21T04:09:11;99648.59;;;9.06;100.00
29121;BME280;16191;49.548;8.658;2023-11-21T04:11:39;99643.28;;;9.09;100.00
29121;BME280;16191;49.548;8.658;2023-11-21T04:14:05;99640.72;;;9.07;100.00
29121;BME280;16191;49.548;8.658;2023-11-21T04:16:32;99649.38;;;9.08;100.00
29121;BME280;16191;49.548;8.658;2023-11-21T04:19:00;99655.28;;;9.11;100.00
29121;BME280;16191;49.548;8.658;2023-11-21T04:21:27;99659.88;;;9.06;100.00
29121;BME280;16191;49.548;8.658;2023-11-21T04:23:53;99660.34;;;9.14;100.00
29121;BME280;16191;49.548;8.658;2023-11-21T04:26:20;99655.72;;;9.21;100.00
29121;BME280;16191;49.548;8.658;2023-11-21T04:28:46;99656.00;;;9.15;100.00
29121;BME280;16191;49.548;8.658;2023-11-21T04:31:13;99655.84;;;9.18;100.00
29121;BME280;16191;49.548;8.658;2023-11-21T04:33:40;99661.13;;;9.16;100.00
29121;BME280;16191;49.548;8.658;2023-11-21T04:36:06;99657.56;;;9.19;100.00
29121;BME280;16191;49.548;8.658;2023-11-21T04:38:33;99667.19;;;9.17;100.00
29121;BME280;16191;49.548;8.658;2023-11-21T04:41:00;99664.84;;;9.11;100.00
29121;BME280;16191;49.548;8.658;2023-11-21T04:43:29;99667.38;;;9.12;100.00
29121;BME280;16191;49.548;8.658;2023-11-21T04:45:56;99668.50;;;9.07;100.00
29121;BME280;16191;49.548;8.658;2023-11-21T04:48:23;99666.69;;;9.09;100.00
29121;BME280;16191;49.548;8.658;2023-11-21T04:50:49;99681.38;;;9.10;100.00
29121;BME280;16191;49.548;8.658;2023-11-21T04:53:17;99677.16;;;9.07;100.00
29121;BME280;16191;49.548;8.658;2023-11-21T04:55:43;99682.94;;;9.14;100.00
29121;BME280;16191;49.548;8.658;2023-11-21T04:58:10;99676.88;;;9.13;100.00
29121;BME280;16191;49.548;8.658;2023-11-21T05:00:38;99679.03;;;9.24;100.00
29121;BME280;16191;49.548;8.658;2023-11-21T05:03:06;99683.13;;;9.30;100.00
29121;BME280;16191;49.548;8.658;2023-11-21T05:05:33;99696.81;;;9.33;100.00
29121;BME280;16191;49.548;8.658;2023-11-21T05:08:00;99689.94;;;9.32;100.00
29121;BME280;16191;49.548;8.658;2023-11-21T05:10:28;99694.66;;;9.24;100.00
29121;BME280;16191;49.548;8.658;2023-11-21T05:12:55;99694.44;;;9.28;100.00
29121;BME280;16191;49.548;8.658;2023-11-21T05:15:22;99698.22;;;9.21;100.00
29121;BME280;16191;49.548;8.658;2023-11-21T05:17:50;99693.72;;;9.25;100.00
29121;BME280;16191;49.548;8.658;2023-11-21T05:20:18;99706.69;;;9.26;100.00
29121;BME280;16191;49.548;8.658;2023-11-21T05:22:47;99703.44;;;9.21;100.00
29121;BME280;16191;49.548;8.658;2023-11-21T05:25:17;99709.34;;;9.25;100.00
29121;BME280;16191;49.548;8.658;2023-11-21T05:27:47;99706.69;;;9.26;100.00
29121;BME280;16191;49.548;8.658;2023-11-21T05:30:14;99712.44;;;9.33;100.00
29121;BME280;16191;49.548;8.658;2023-11-21T05:32:41;99723.63;;;9.35;100.00
29121;BME280;16191;49.548;8.658;2023-11-21T05:35:10;99722.72;;;9.36;100.00
29121;BME280;16191;49.548;8.658;2023-11-21T05:37:38;99731.59;;;9.32;100.00
29121;BME280;16191;49.548;8.658;2023-11-21T05:40:08;99730.91;;;9.28;100.00
29121;BME280;16191;49.548;8.658;2023-11-21T05:42:35;99741.25;;;9.30;100.00
29121;BME280;16191;49.548;8.658;2023-11-21T05:45:02;99738.72;;;9.28;100.00
29121;BME280;16191;49.548;8.658;2023-11-21T05:47:46;99733.28;;;9.33;100.00
29121;BME280;16191;49.548;8.658;2023-11-21T05:50:15;99735.38;;;9.25;100.00
29121;BME280;16191;49.548;8.658;2023-11-21T05:52:44;99734.78;;;9.18;100.00
29121;BME280;16191;49.548;8.658;2023-11-21T05:55:11;99734.47;;;9.26;100.00
29121;BME280;16191;49.548;8.658;2023-11-21T05:57:38;99741.38;;;9.27;100.00
29121;BME280;16191;49.548;8.658;2023-11-21T06:00:10;99745.22;;;9.18;100.00
29121;BME280;16191;49.548;8.658;2023-11-21T06:02:39;99751.19;;;9.20;100.00
29121;BME280;16191;49.548;8.658;2023-11-21T06:05:07;99750.81;;;9.30;100.00
29121;BME280;16191;49.548;8.658;2023-11-21T06:07:34;99757.63;;;9.32;100.00
29121;BME280;16191;49.548;8.658;2023-11-21T06:10:03;99752.81;;;9.23;100.00
29121;BME280;16191;49.548;8.658;2023-11-21T06:12:32;99761.91;;;9.33;100.00
29121;BME280;16191;49.548;8.658;2023-11-21T06:15:03;99767.47;;;9.25;100.00
29121;BME280;16191;49.548;8.658;2023-11-21T06:17:31;99761.13;;;9.31;100.00
29121;BME280;16191;49.548;8.658;2023-11-21T06:19:58;99763.00;;;9.29;100.00
29121;BME280;16191;49.548;8.658;2023-11-21T06:22:24;99772.41;;;9.32;100.00
29121;BME280;16191;49.548;8.658;2023-11-21T06:24:51;99773.03;;;9.37;100.00
29121;BME280;16191;49.548;8.658;2023-11-21T06:27:18;99773.84;;;9.39;100.00
29121;BME280;16191;49.548;8.658;2023-11-21T06:29:44;99778.25;;;9.37;100.00
29121;BME280;16191;49.548;8.658;2023-11-21T06:32:11;99778.78;;;9.24;100.00
29121;BME280;16191;49.548;8.658;2023-11-21T06:34:37;99783.16;;;9.24;100.00
29121;BME280;16191;49.548;8.658;2023-11-21T06:37:04;99786.34;;;9.31;100.00
29121;BME280;16191;49.548;8.658;2023-11-21T06:39:32;99786.53;;;9.26;100.00
29121;BME280;16191;49.548;8.658;2023-11-21T06:41:58;99790.97;;;9.24;100.00
29121;BME280;16191;49.548;8.658;2023-11-21T06:44:26;99796.91;;;9.27;100.00
29121;BME280;16191;49.548;8.658;2023-11-21T06:46:52;99800.19;;;9.31;100.00
29121;BME280;16191;49.548;8.658;2023-11-21T06:49:19;99807.44;;;9.24;100.00
29121;BME280;16191;49.548;8.658;2023-11-21T06:51:49;99808.41;;;9.22;100.00
29121;BME280;16191;49.548;8.658;2023-11-21T06:54:15;99814.16;;;9.30;100.00
29121;BME280;16191;49.548;8.658;2023-11-21T06:56:42;99812.72;;;9.23;100.00
29121;BME280;16191;49.548;8.658;2023-11-21T06:59:08;99815.75;;;9.33;100.00
29121;BME280;16191;49.548;8.658;2023-11-21T07:01:36;99819.19;;;9.33;100.00
29121;BME280;16191;49.548;8.658;2023-11-21T07:04:05;99821.63;;;9.38;100.00
29121;BME280;16191;49.548;8.658;2023-11-21T07:06:33;99822.34;;;9.41;100.00
29121;BME280;16191;49.548;8.658;2023-11-21T07:08:59;99827.59;;;9.40;100.00
29121;BME280;16191;49.548;8.658;2023-11-21T07:11:27;99833.72;;;9.39;100.00
29121;BME280;16191;49.548;8.658;2023-11-21T07:13:54;99827.78;;;9.35;100.00
29121;BME280;16191;49.548;8.658;2023-11-21T07:16:20;99835.22;;;9.24;100.00
29121;BME280;16191;49.548;8.658;2023-11-21T07:18:48;99837.16;;;9.19;100.00
29121;BME280;16191;49.548;8.658;2023-11-21T07:21:16;99841.34;;;9.23;100.00
29121;BME280;16191;49.548;8.658;2023-11-21T07:23:42;99844.59;;;9.28;100.00
29121;BME280;16191;49.548;8.658;2023-11-21T07:26:09;99855.22;;;9.23;100.00
29121;BME280;16191;49.548;8.658;2023-11-21T07:28:38;99854.13;;;9.29;100.00
29121;BME280;16191;49.548;8.658;2023-11-21T07:31:05;99847.00;;;9.33;100.00
29121;BME280;16191;49.548;8.658;2023-11-21T07:33:31;99854.53;;;9.18;100.00
29121;BME280;16191;49.548;8.658;2023-11-21T07:35:58;99860.91;;;9.32;100.00
29121;BME280;16191;49.548;8.658;2023-11-21T07:38:24;99859.94;;;9.34;100.00
29121;BME280;16191;49.548;8.658;2023-11-21T07:40:51;99864.66;;;9.26;100.00
29121;BME280;16191;49.548;8.658;2023-11-21T07:43:17;99859.38;;;9.27;100.00
29121;BME280;16191;49.548;8.658;2023-11-21T07:45:45;99865.44;;;9.28;100.00
29121;BME280;16191;49.548;8.658;2023-11-21T07:48:12;99869.00;;;9.25;100.00
29121;BME280;16191;49.548;8.658;2023-11-21T07:50:39;99865.50;;;9.26;100.00
29121;BME280;16191;49.548;8.658;2023-11-21T07:53:05;99875.44;;;9.37;100.00
29121;BME280;16191;49.548;8.658;2023-11-21T07:55:32;99869.56;;;9.32;100.00
29121;BME280;16191;49.548;8.658;2023-11-21T07:57:59;99869.34;;;9.38;100.00
29121;BME280;16191;49.548;8.658;2023-11-21T08:00:26;99879.88;;;9.35;100.00
29121;BME280;16191;49.548;8.658;2023-11-21T08:02:56;99879.88;;;9.35;100.00
29121;BME280;16191;49.548;8.658;2023-11-21T08:05:23;99880.59;;;9.39;100.00
29121;BME280;16191;49.548;8.658;2023-11-21T08:08:00;99877.56;;;9.49;100.00
29121;BME280;16191;49.548;8.658;2023-11-21T08:10:26;99875.19;;;9.43;100.00
29121;BME280;16191;49.548;8.658;2023-11-21T08:12:53;99877.56;;;9.49;100.00
29121;BME280;16191;49.548;8.658;2023-11-21T08:15:19;99877.88;;;9.62;100.00
29121;BME280;16191;49.548;8.658;2023-11-21T08:17:47;99881.00;;;9.70;100.00
29121;BME280;16191;49.548;8.658;2023-11-21T08:20:14;99881.78;;;9.72;100.00
29121;BME280;16191;49.548;8.658;2023-11-21T08:22:44;99892.91;;;9.76;100.00
29121;BME280;16191;49.548;8.658;2023-11-21T08:25:11;99890.94;;;9.81;100.00
29121;BME280;16191;49.548;8.658;2023-11-21T08:27:38;99903.72;;;9.87;100.00
29121;BME280;16191;49.548;8.658;2023-11-21T08:30:05;99898.44;;;9.88;100.00
29121;BME280;16191;49.548;8.658;2023-11-21T08:32:33;99903.97;;;9.81;100.00
29121;BME280;16191;49.548;8.658;2023-11-21T08:35:00;99914.03;;;9.90;100.00
29121;BME280;16191;49.548;8.658;2023-11-21T08:37:26;99919.94;;;9.93;100.00
29121;BME280;16191;49.548;8.658;2023-11-21T08:39:53;99928.56;;;9.95;100.00
29121;BME280;16191;49.548;8.658;2023-11-21T08:42:20;99931.28;;;9.92;100.00
29121;BME280;16191;49.548;8.658;2023-11-21T08:44:47;99934.22;;;9.85;100.00
29121;BME280;16191;49.548;8.658;2023-11-21T08:47:14;99935.97;;;9.84;100.00
29121;BME280;16191;49.548;8.658;2023-11-21T08:49:40;99943.53;;;9.90;100.00
29121;BME280;16191;49.548;8.658;2023-11-21T08:52:07;99946.00;;;9.93;100.00
29121;BME280;16191;49.548;8.658;2023-11-21T08:54:34;99945.47;;;9.85;100.00
29121;BME280;16191;49.548;8.658;2023-11-21T08:57:01;99952.38;;;9.86;100.00
29121;BME280;16191;49.548;8.658;2023-11-21T08:59:28;99949.19;;;9.80;100.00
29121;BME280;16191;49.548;8.658;2023-11-21T09:01:54;99953.22;;;9.67;100.00
29121;BME280;16191;49.548;8.658;2023-11-21T09:04:21;99964.94;;;9.56;100.00
29121;BME280;16191;49.548;8.658;2023-11-21T09:06:47;99953.63;;;9.78;100.00
29121;BME280;16191;49.548;8.658;2023-11-21T09:09:14;99962.03;;;9.84;100.00
29121;BME280;16191;49.548;8.658;2023-11-21T09:11:40;99960.47;;;9.80;100.00
29121;BME280;16191;49.548;8.658;2023-11-21T09:14:07;99959.78;;;9.75;100.00
29121;BME280;16191;49.548;8.658;2023-11-21T09:16:35;99970.44;;;9.91;100.00
29121;BME280;16191;49.548;8.658;2023-11-21T09:19:01;99974.03;;;9.88;100.00
29121;BME280;16191;49.548;8.658;2023-11-21T09:21:30;99978.13;;;9.74;100.00
29121;BME280;16191;49.548;8.658;2023-11-21T09:23:56;99979.25;;;9.88;100.00
29121;BME280;16191;49.548;8.658;2023-11-21T09:26:23;99986.66;;;9.97;100.00
29121;BME280;16191;49.548;8.658;2023-11-21T09:28:49;99985.53;;;10.03;100.00
29121;BME280;16191;49.548;8.658;2023-11-21T09:31:16;99991.78;;;9.99;100.00
29121;BME280;16191;49.548;8.658;2023-11-21T09:33:43;99996.03;;;10.02;100.00
29121;BME280;16191;49.548;8.658;2023-11-21T09:36:13;100003.41;;;10.12;100.00
29121;BME280;16191;49.548;8.658;2023-11-21T09:38:41;100002.94;;;10.03;100.00
29121;BME280;16191;49.548;8.658;2023-11-21T09:41:50;100004.69;;;10.02;100.00
29121;BME280;16191;49.548;8.658;2023-11-21T09:44:13;100008.63;;;10.12;100.00
29121;BME280;16191;49.548;8.658;2023-11-21T09:46:42;100005.69;;;10.00;100.00
29121;BME280;16191;49.548;8.658;2023-11-21T09:49:09;100013.31;;;10.04;100.00
29121;BME280;16191;49.548;8.658;2023-11-21T09:51:42;100028.28;;;9.99;100.00
29121;BME280;16191;49.548;8.658;2023-11-21T09:54:10;100019.44;;;10.03;100.00
29121;BME280;16191;49.548;8.658;2023-11-21T09:56:38;100028.63;;;9.91;100.00
29121;BME280;16191;49.548;8.658;2023-11-21T09:59:05;100030.19;;;9.95;100.00
29121;BME280;16191;49.548;8.658;2023-11-21T10:01:36;100029.06;;;10.01;100.00
29121;BME280;16191;49.548;8.658;2023-11-21T10:04:03;100027.00;;;10.09;100.00
29121;BME280;16191;49.548;8.658;2023-11-21T10:06:30;100035.75;;;10.08;100.00
29121;BME280;16191;49.548;8.658;2023-11-21T10:08:57;100041.88;;;10.07;100.00
29121;BME280;16191;49.548;8.658;2023-11-21T10:11:27;100040.69;;;10.14;100.00
29121;BME280;16191;49.548;8.658;2023-11-21T10:13:54;100041.31;;;9.99;100.00
29121;BME280;16191;49.548;8.658;2023-11-21T10:16:22;100045.38;;;10.06;100.00
29121;BME280;16191;49.548;8.658;2023-11-21T10:18:52;100039.84;;;10.14;100.00
29121;BME280;16191;49.548;8.658;2023-11-21T10:21:38;100045.56;;;10.02;100.00
29121;BME280;16191;49.548;8.658;2023-11-21T10:24:05;100052.66;;;9.98;100.00
29121;BME280;16191;49.548;8.658;2023-11-21T10:26:33;100038.22;;;10.11;100.00
29121;BME280;16191;49.548;8.658;2023-11-21T10:29:16;100040.75;;;10.13;100.00
29121;BME280;16191;49.548;8.658;2023-11-21T10:31:43;100048.47;;;10.16;100.00
29121;BME280;16191;49.548;8.658;2023-11-21T10:34:18;100045.19;;;10.11;100.00
29121;BME280;16191;49.548;8.658;2023-11-21T10:36:46;100044.09;;;10.16;100.00
29121;BME280;16191;49.548;8.658;2023-11-21T10:39:22;100043.56;;;10.08;100.00
29121;BME280;16191;49.548;8.658;2023-11-21T10:41:50;100052.47;;;10.03;100.00
29121;BME280;16191;49.548;8.658;2023-11-21T10:44:18;100053.81;;;10.13;100.00
29121;BME280;16191;49.548;8.658;2023-11-21T10:46:49;100052.03;;;10.13;100.00
29121;BME280;16191;49.548;8.658;2023-11-21T10:49:18;100054.06;;;10.07;100.00
29121;BME280;16191;49.548;8.658;2023-11-21T10:51:45;100061.63;;;10.13;100.00
29121;BME280;16191;49.548;8.658;2023-11-21T10:54:17;100066.53;;;9.98;100.00
29121;BME280;16191;49.548;8.658;2023-11-21T10:56:43;100065.31;;;10.07;100.00
29121;BME280;16191;49.548;8.658;2023-11-21T10:59:10;100065.56;;;10.01;100.00
29121;BME280;16191;49.548;8.658;2023-11-21T11:01:42;100064.16;;;9.94;100.00
29121;BME280;16191;49.548;8.658;2023-11-21T11:04:14;100069.47;;;9.91;100.00
29121;BME280;16191;49.548;8.658;2023-11-21T11:06:43;100065.28;;;9.87;100.00
29121;BME280;16191;49.548;8.658;2023-11-21T11:09:13;100068.91;;;10.05;100.00
29121;BME280;16191;49.548;8.658;2023-11-21T11:11:40;100068.28;;;9.98;100.00
29121;BME280;16191;49.548;8.658;2023-11-21T11:14:16;100070.47;;;10.09;100.00
29121;BME280;16191;49.548;8.658;2023-11-21T11:16:45;100063.50;;;10.09;100.00
29121;BME280;16191;49.548;8.658;2023-11-21T11:19:12;100062.34;;;10.16;100.00
29121;BME280;16191;49.548;8.658;2023-11-21T11:21:45;100062.47;;;10.13;100.00
29121;BME280;16191;49.548;8.658;2023-11-21T11:26:57;100056.69;;;10.27;100.00
29121;BME280;16191;49.548;8.658;2023-11-21T11:29:35;100060.94;;;10.29;100.00
29121;BME280;16191;49.548;8.658;2023-11-21T11:35:01;100059.06;;;10.72;100.00
29121;BME280;16191;49.548;8.658;2023-11-21T11:37:30;100065.16;;;10.91;100.00
29121;BME280;16191;49.548;8.658;2023-11-21T11:39:58;100072.72;;;10.97;100.00
29121;BME280;16191;49.548;8.658;2023-11-21T11:42:26;100073.78;;;10.54;100.00
29121;BME280;16191;49.548;8.658;2023-11-21T11:44:53;100066.28;;;10.47;100.00
29121;BME280;16191;49.548;8.658;2023-11-21T11:47:26;100071.88;;;10.58;100.00
29121;BME280;16191;49.548;8.658;2023-11-21T11:50:01;100071.59;;;10.64;100.00
29121;BME280;16191;49.548;8.658;2023-11-21T11:55:08;100082.88;;;10.64;100.00
29121;BME280;16191;49.548;8.658;2023-11-21T11:57:42;100081.25;;;10.82;100.00
29121;BME280;16191;49.548;8.658;2023-11-21T12:00:19;100086.72;;;10.76;100.00
29121;BME280;16191;49.548;8.658;2023-11-21T12:02:49;100090.13;;;10.78;100.00
29121;BME280;16191;49.548;8.658;2023-11-21T12:05:17;100091.69;;;10.82;100.00
29121;BME280;16191;49.548;8.658;2023-11-21T12:07:49;100098.06;;;10.95;100.00
29121;BME280;16191;49.548;8.658;2023-11-21T12:10:19;100103.22;;;10.97;100.00
29121;BME280;16191;49.548;8.658;2023-11-21T12:12:47;100098.78;;;10.99;100.00
29121;BME280;16191;49.548;8.658;2023-11-21T12:15:15;100098.91;;;10.96;100.00
29121;BME280;16191;49.548;8.658;2023-11-21T12:17:43;100109.22;;;10.99;100.00
29121;BME280;16191;49.548;8.658;2023-11-21T12:20:11;100109.06;;;11.02;100.00
29121;BME280;16191;49.548;8.658;2023-11-21T12:22:46;100108.59;;;11.13;100.00
29121;BME280;16191;49.548;8.658;2023-11-21T12:25:20;100115.94;;;11.23;100.00
29121;BME280;16191;49.548;8.658;2023-11-21T12:27:49;100117.25;;;11.13;100.00
29121;BME280;16191;49.548;8.658;2023-11-21T12:30:21;100121.09;;;11.25;100.00
29121;BME280;16191;49.548;8.658;2023-11-21T12:32:50;100118.56;;;11.23;100.00
29121;BME280;16191;49.548;8.658;2023-11-21T12:35:19;100122.88;;;11.43;100.00
29121;BME280;16191;49.548;8.658;2023-11-21T12:37:47;100130.25;;;11.33;100.00
29121;BME280;16191;49.548;8.658;2023-11-21T12:40:15;100143.53;;;11.29;100.00
29121;BME280;16191;49.548;8.658;2023-11-21T12:42:46;100145.72;;;11.38;100.00
29121;BME280;16191;49.548;8.658;2023-11-21T12:45:28;100144.81;;;11.58;100.00
29121;BME280;16191;49.548;8.658;2023-11-21T12:47:58;100158.00;;;12.11;100.00
29121;BME280;16191;49.548;8.658;2023-11-21T12:50:27;100162.97;;;12.52;100.00
29121;BME280;16191;49.548;8.658;2023-11-21T12:53:05;100165.84;;;12.80;100.00
29121;BME280;16191;49.548;8.658;2023-11-21T12:55:33;100169.56;;;12.93;100.00
29121;BME280;16191;49.548;8.658;2023-11-21T12:58:09;100177.56;;;13.41;100.00
29121;BME280;16191;49.548;8.658;2023-11-21T13:00:39;100175.88;;;13.40;100.00
29121;BME280;16191;49.548;8.658;2023-11-21T13:03:10;100181.50;;;13.16;100.00
29121;BME280;16191;49.548;8.658;2023-11-21T13:05:40;100183.03;;;12.86;100.00
29121;BME280;16191;49.548;8.658;2023-11-21T13:08:14;100182.81;;;12.73;100.00